sensor_id;sensor_type;location;lat;lon;timestamp;temperature;humidity
15997;DHT22;8103;51.340;12.326;2023-12-20T00:01:07;5.60;99.90
15997;DHT22;8103;51.340;12.326;2023-12-20T00:03:34;5.70;99.90
15997;DHT22;8103;51.340;12.326;2023-12-20T00:06:06;5.70;99.90
15997;DHT22;8103;51.340;12.326;2023-12-20T00:08:33;5.70;99.90
15997;DHT22;8103;51.340;12.326;2023-12-20T00:10:59;5.70;99.90
15997;DHT22;8103;51.340;12.326;2023-12-20T00:13:26;5.70;99.90
15997;DHT22;8103;51.340;12.326;2023-12-20T00:15:53;5.70;99.90
15997;DHT22;8103;51.340;12.326;2023-12-20T00:18:19;5.60;99.90
15997;DHT22;8103;51.340;12.326;2023-12-20T00:20:46;5.70;99.90
15997;DHT22;8103;51.340;12.326;2023-12-20T00:23:13;5.70;99.90
15997;DHT22;8103;51.340;12.326;2023-12-20T00:25:39;5.70;99.90
15997;DHT22;8103;51.340;12.326;2023-12-20T00:28:06;5.60;99.90
15997;DHT22;8103;51.340;12.326;2023-12-20T00:30:33;5.60;99.90
15997;DHT22;8103;51.340;12.326;2023-12-20T00:33:00;5.60;99.90
15997;DHT22;8103;51.340;12.326;2023-12-20T00:35:26;5.60;99.90
15997;DHT22;8103;51.340;12.326;2023-12-20T00:37:53;5.60;99.90
15997;DHT22;8103;51.340;12.326;2023-12-20T00:40:20;5.60;99.90
15997;DHT22;8103;51.340;12.326;2023-12-20T00:42:47;5.50;99.90
15997;DHT22;8103;51.340;12.326;2023-12-20T00:45:14;5.50;99.90
15997;DHT22;8103;51.340;12.326;2023-12-20T00:47:42;5.50;99.90
15997;DHT22;8103;51.340;12.326;2023-12-20T00:50:12;5.50;99.90
15997;DHT22;8103;51.340;12.326;2023-12-20T00:52:39;5.50;99.90
15997;DHT22;8103;51.340;12.326;2023-12-20T00:55:06;5.50;99.90
15997;DHT22;8103;51.340;12.326;2023-12-20T00:57:33;5.50;99.90
15997;DHT22;8103;51.340;12.326;2023-12-20T01:00:00;5.40;99.90
15997;DHT22;8103;51.340;12.326;2023-12-20T01:02:27;5.50;99.90
15997;DHT22;8103;51.340;12.326;2023-12-20T01:04:53;5.40;99.90
15997;DHT22;8103;51.340;12.326;2023-12-20T01:07:20;5.40;99.90
15997;DHT22;8103;51.340;12.326;2023-12-20T01:09:47;5.40;99.90
15997;DHT22;8103;51.340;12.326;2023-12-20T01:12:14;5.40;99.90
15997;DHT22;8103;51.340;12.326;2023-12-20T01:14:41;5.40;99.90
15997;DHT22;8103;51.340;12.326;2023-12-20T01:17:07;5.40;99.90
15997;DHT22;8103;51.340;12.326;2023-12-20T01:19:34;5.50;99.90
15997;DHT22;8103;51.340;12.326;2023-12-20T01:22:01;5.50;99.90
15997;DHT22;8103;51.340;12.326;2023-12-20T01:24:28;5.50;99.90
15997;DHT22;8103;51.340;12.326;2023-12-20T01:26:54;5.50;99.90
15997;DHT22;8103;51.340;12.326;2023-12-20T01:29:21;5.50;99.90
15997;DHT22;8103;51.340;12.326;2023-12-20T01:31:48;5.50;99.90
15997;DHT22;8103;51.340;12.326;2023-12-20T01:34:15;5.50;99.90
15997;DHT22;8103;51.340;12.326;2023-12-20T01:36:42;5.50;99.90
15997;DHT22;8103;51.340;12.326;2023-12-20T01:39:09;5.50;99.90
15997;DHT22;8103;51.340;12.326;2023-12-20T01:41:41;5.50;99.90
15997;DHT22;8103;51.340;12.326;2023-12-20T01:44:08;5.50;99.90
15997;DHT22;8103;51.340;12.326;2023-12-20T01:46:35;5.50;99.90
15997;DHT22;8103;51.340;12.326;2023-12-20T01:49:02;5.50;99.90
15997;DHT22;8103;51.340;12.326;2023-12-20T01:51:28;5.50;99.90
15997;DHT22;8103;51.340;12.326;2023-12-20T01:53:57;5.50;99.90
15997;DHT22;8103;51.340;12.326;2023-12-20T01:56:25;5.50;99.90
15997;DHT22;8103;51.340;12.326;2023-12-20T01:58:52;5.50;99.90
15997;DHT22;8103;51.340;12.326;2023-12-20T02:01:19;5.50;99.90
15997;DHT22;8103;51.340;12.326;2023-12-20T02:03:45;5.50;99.90
15997;DHT22;8103;51.340;12.326;2023-12-20T02:06:13;5.40;99.90
15997;DHT22;8103;51.340;12.326;2023-12-20T02:08:39;5.40;99.90
15997;DHT22;8103;51.340;12.326;2023-12-20T02:11:06;5.40;99.90
15997;DHT22;8103;51.340;12.326;2023-12-20T02:13:34;5.40;99.90
15997;DHT22;8103;51.340;12.326;2023-12-20T02:16:01;5.40;99.90
15997;DHT22;8103;51.340;12.326;2023-12-20T02:18:28;5.40;99.90
15997;DHT22;8103;51.340;12.326;2023-12-20T02:20:54;5.50;99.90
15997;DHT22;8103;51.340;12.326;2023-12-20T02:23:22;5.40;99.90
15997;DHT22;8103;51.340;12.326;2023-12-20T02:25:48;5.40;99.90
15997;DHT22;8103;51.340;12.326;2023-12-20T02:28:15;5.50;99.90
15997;DHT22;8103;51.340;12.326;2023-12-20T02:30:43;5.50;99.90
15997;DHT22;8103;51.340;12.326;2023-12-20T02:33:12;5.50;99.90
15997;DHT22;8103;51.340;12.326;2023-12-20T02:35:39;5.50;99.90
15997;DHT22;8103;51.340;12.326;2023-12-20T02:38:06;5.50;99.90
15997;DHT22;8103;51.340;12.326;2023-12-20T02:40:32;5.50;99.90
15997;DHT22;8103;51.340;12.326;2023-12-20T02:42:59;5.50;99.90
15997;DHT22;8103;51.340;12.326;2023-12-20T02:45:26;5.50;99.90
15997;DHT22;8103;51.340;12.326;2023-12-20T02:47:53;5.50;99.90
15997;DHT22;8103;51.340;12.326;2023-12-20T02:50:20;5.50;99.90
15997;DHT22;8103;51.340;12.326;2023-12-20T02:52:47;5.50;99.90
15997;DHT22;8103;51.340;12.326;2023-12-20T02:55:13;5.50;99.90
15997;DHT22;8103;51.340;12.326;2023-12-20T02:57:40;5.50;99.90
15997;DHT22;8103;51.340;12.326;2023-12-20T03:00:09;5.50;99.90
15997;DHT22;8103;51.340;12.326;2023-12-20T03:02:37;5.50;99.90
15997;DHT22;8103;51.340;12.326;2023-12-20T03:05:03;5.50;99.90
15997;DHT22;8103;51.340;12.326;2023-12-20T03:07:30;5.50;99.90
15997;DHT22;8103;51.340;12.326;2023-12-20T03:09:57;5.50;99.90
15997;DHT22;8103;51.340;12.326;2023-12-20T03:12:31;5.50;99.90
15997;DHT22;8103;51.340;12.326;2023-12-20T03:14:58;5.50;99.90
15997;DHT22;8103;51.340;12.326;2023-12-20T03:17:24;5.50;99.90
15997;DHT22;8103;51.340;12.326;2023-12-20T03:19:51;5.50;99.90
15997;DHT22;8103;51.340;12.326;2023-12-20T03:22:18;5.50;99.90
15997;DHT22;8103;51.340;12.326;2023-12-20T03:24:44;5.50;99.90
15997;DHT22;8103;51.340;12.326;2023-12-20T03:27:11;5.50;99.90
15997;DHT22;8103;51.340;12.326;2023-12-20T03:29:38;5.60;99.90
15997;DHT22;8103;51.340;12.326;2023-12-20T03:32:04;5.50;99.90
15997;DHT22;8103;51.340;12.326;2023-12-20T03:34:31;5.50;99.90
15997;DHT22;8103;51.340;12.326;2023-12-20T03:36:58;5.50;99.90
15997;DHT22;8103;51.340;12.326;2023-12-20T03:39:24;5.50;99.90
15997;DHT22;8103;51.340;12.326;2023-12-20T03:41:51;5.50;99.90
15997;DHT22;8103;51.340;12.326;2023-12-20T03:44:18;5.50;99.90
15997;DHT22;8103;51.340;12.326;2023-12-20T03:46:44;5.50;99.90
15997;DHT22;8103;51.340;12.326;2023-12-20T03:49:12;5.50;99.90
15997;DHT22;8103;51.340;12.326;2023-12-20T03:51:38;5.50;99.90
15997;DHT22;8103;51.340;12.326;2023-12-20T03:54:05;5.40;99.90
15997;DHT22;8103;51.340;12.326;2023-12-20T03:56:32;5.50;99.90
15997;DHT22;8103;51.340;12.326;2023-12-20T03:58:58;5.50;99.90
15997;DHT22;8103;51.340;12.326;2023-12-20T04:01:25;5.50;99.90
15997;DHT22;8103;51.340;12.326;2023-12-20T04:03:52;5.50;99.90
15997;DHT22;8103;51.340;12.326;2023-12-20T04:06:19;5.50;99.90
15997;DHT22;8103;51.340;12.326;2023-12-20T04:08:46;5.60;99.90
15997;DHT22;8103;51.340;12.326;2023-12-20T04:11:12;5.60;99.90
15997;DHT22;8103;51.340;12.326;2023-12-20T04:13:39;5.60;99.90
15997;DHT22;8103;51.340;12.326;2023-12-20T04:16:05;5.60;99.90
15997;DHT22;8103;51.340;12.326;2023-12-20T04:18:32;5.60;99.90
15997;DHT22;8103;51.340;12.326;2023-12-20T04:20:59;5.60;99.90
15997;DHT22;8103;51.340;12.326;2023-12-20T04:23:26;5.60;99.90
15997;DHT22;8103;51.340;12.326;2023-12-20T04:25:53;5.60;99.90
15997;DHT22;8103;51.340;12.326;2023-12-20T04:28:20;5.60;99.90
15997;DHT22;8103;51.340;12.326;2023-12-20T04:30:46;5.70;99.90
15997;DHT22;8103;51.340;12.326;2023-12-20T04:33:13;5.70;99.90
15997;DHT22;8103;51.340;12.326;2023-12-20T04:35:40;5.70;99.90
15997;DHT22;8103;51.340;12.326;2023-12-20T04:38:07;5.70;99.90
15997;DHT22;8103;51.340;12.326;2023-12-20T04:40:34;5.70;99.90
15997;DHT22;8103;51.340;12.326;2023-12-20T04:43:00;5.70;99.90
15997;DHT22;8103;51.340;12.326;2023-12-20T04:45:27;5.70;99.90
15997;DHT22;8103;51.340;12.326;2023-12-20T04:47:55;5.70;99.90
15997;DHT22;8103;51.340;12.326;2023-12-20T04:50:21;5.70;99.90
15997;DHT22;8103;51.340;12.326;2023-12-20T04:52:48;5.70;99.90
15997;DHT22;8103;51.340;12.326;2023-12-20T04:55:15;5.70;99.90
15997;DHT22;8103;51.340;12.326;2023-12-20T04:57:42;5.80;99.90
15997;DHT22;8103;51.340;12.326;2023-12-20T05:00:10;5.70;99.90
15997;DHT22;8103;51.340;12.326;2023-12-20T05:02:37;5.70;99.90
15997;DHT22;8103;51.340;12.326;2023-12-20T05:05:04;5.80;99.90
15997;DHT22;8103;51.340;12.326;2023-12-20T05:07:31;5.80;99.90
15997;DHT22;8103;51.340;12.326;2023-12-20T05:09:58;5.80;99.90
15997;DHT22;8103;51.340;12.326;2023-12-20T05:12:25;5.80;99.90
15997;DHT22;8103;51.340;12.326;2023-12-20T05:14:52;5.80;99.90
15997;DHT22;8103;51.340;12.326;2023-12-20T05:17:19;5.80;99.90
15997;DHT22;8103;51.340;12.326;2023-12-20T05:19:47;5.80;99.90
15997;DHT22;8103;51.340;12.326;2023-12-20T05:22:13;5.90;99.90
15997;DHT22;8103;51.340;12.326;2023-12-20T05:24:40;5.90;99.90
15997;DHT22;8103;51.340;12.326;2023-12-20T05:27:07;5.90;99.90
15997;DHT22;8103;51.340;12.326;2023-12-20T05:29:33;5.90;99.90
15997;DHT22;8103;51.340;12.326;2023-12-20T05:32:00;5.90;99.90
15997;DHT22;8103;51.340;12.326;2023-12-20T05:34:27;5.80;99.90
15997;DHT22;8103;51.340;12.326;2023-12-20T05:36:54;5.90;99.90
15997;DHT22;8103;51.340;12.326;2023-12-20T05:39:20;5.90;99.90
15997;DHT22;8103;51.340;12.326;2023-12-20T05:41:47;5.90;99.90
15997;DHT22;8103;51.340;12.326;2023-12-20T05:44:14;5.90;99.90
15997;DHT22;8103;51.340;12.326;2023-12-20T05:46:41;5.90;99.90
15997;DHT22;8103;51.340;12.326;2023-12-20T05:49:07;5.90;99.90
15997;DHT22;8103;51.340;12.326;2023-12-20T05:51:34;5.90;99.90
15997;DHT22;8103;51.340;12.326;2023-12-20T05:54:01;5.90;99.90
15997;DHT22;8103;51.340;12.326;2023-12-20T05:56:28;5.90;99.90
15997;DHT22;8103;51.340;12.326;2023-12-20T05:58:54;5.90;99.90
15997;DHT22;8103;51.340;12.326;2023-12-20T06:01:21;5.80;99.90
15997;DHT22;8103;51.340;12.326;2023-12-20T06:03:48;5.80;99.90
15997;DHT22;8103;51.340;12.326;2023-12-20T06:06:14;5.80;99.90
15997;DHT22;8103;51.340;12.326;2023-12-20T06:08:42;5.70;99.90
15997;DHT22;8103;51.340;12.326;2023-12-20T06:11:10;5.70;99.90
15997;DHT22;8103;51.340;12.326;2023-12-20T06:13:36;5.70;99.90
15997;DHT22;8103;51.340;12.326;2023-12-20T06:16:05;5.70;99.90
15997;DHT22;8103;51.340;12.326;2023-12-20T06:18:34;5.70;99.90
15997;DHT22;8103;51.340;12.326;2023-12-20T06:21:01;5.70;99.90
15997;DHT22;8103;51.340;12.326;2023-12-20T06:23:29;5.70;99.90
15997;DHT22;8103;51.340;12.326;2023-12-20T06:25:56;5.70;99.90
15997;DHT22;8103;51.340;12.326;2023-12-20T06:28:23;5.60;99.90
15997;DHT22;8103;51.340;12.326;2023-12-20T06:30:50;5.50;99.90
15997;DHT22;8103;51.340;12.326;2023-12-20T06:33:18;5.40;99.90
15997;DHT22;8103;51.340;12.326;2023-12-20T06:35:46;5.30;99.90
15997;DHT22;8103;51.340;12.326;2023-12-20T06:38:14;5.20;99.90
15997;DHT22;8103;51.340;12.326;2023-12-20T06:40:41;5.10;99.90
15997;DHT22;8103;51.340;12.326;2023-12-20T06:43:09;5.10;99.90
15997;DHT22;8103;51.340;12.326;2023-12-20T06:45:38;5.10;99.90
15997;DHT22;8103;51.340;12.326;2023-12-20T06:48:05;5.00;99.90
15997;DHT22;8103;51.340;12.326;2023-12-20T06:50:32;5.00;99.90
15997;DHT22;8103;51.340;12.326;2023-12-20T06:52:59;5.10;99.90
15997;DHT22;8103;51.340;12.326;2023-12-20T06:55:25;5.20;99.90
15997;DHT22;8103;51.340;12.326;2023-12-20T06:57:52;5.20;99.90
15997;DHT22;8103;51.340;12.326;2023-12-20T07:00:19;5.20;99.90
15997;DHT22;8103;51.340;12.326;2023-12-20T07:02:47;5.20;99.90
15997;DHT22;8103;51.340;12.326;2023-12-20T07:05:16;5.20;99.90
15997;DHT22;8103;51.340;12.326;2023-12-20T07:07:43;5.20;99.90
15997;DHT22;8103;51.340;12.326;2023-12-20T07:10:10;5.10;99.90
15997;DHT22;8103;51.340;12.326;2023-12-20T07:12:37;5.10;99.90
15997;DHT22;8103;51.340;12.326;2023-12-20T07:15:04;5.10;99.90
15997;DHT22;8103;51.340;12.326;2023-12-20T07:17:32;5.10;99.90
15997;DHT22;8103;51.340;12.326;2023-12-20T07:20:00;5.00;99.90
15997;DHT22;8103;51.340;12.326;2023-12-20T07:22:30;5.10;99.90
15997;DHT22;8103;51.340;12.326;2023-12-20T07:25:00;5.10;99.90
15997;DHT22;8103;51.340;12.326;2023-12-20T07:27:27;5.10;99.90
15997;DHT22;8103;51.340;12.326;2023-12-20T07:29:54;5.10;99.90
15997;DHT22;8103;51.340;12.326;2023-12-20T07:32:21;5.20;99.90
15997;DHT22;8103;51.340;12.326;2023-12-20T07:34:48;5.30;99.90
15997;DHT22;8103;51.340;12.326;2023-12-20T07:37:14;5.50;99.90
15997;DHT22;8103;51.340;12.326;2023-12-20T07:39:41;5.90;99.90
15997;DHT22;8103;51.340;12.326;2023-12-20T07:42:08;6.30;99.90
15997;DHT22;8103;51.340;12.326;2023-12-20T07:48:23;6.70;99.90
15997;DHT22;8103;51.340;12.326;2023-12-20T07:50:50;6.50;99.90
15997;DHT22;8103;51.340;12.326;2023-12-20T07:53:16;6.40;99.90
15997;DHT22;8103;51.340;12.326;2023-12-20T07:55:43;6.30;99.90
15997;DHT22;8103;51.340;12.326;2023-12-20T07:58:10;6.10;99.90
15997;DHT22;8103;51.340;12.326;2023-12-20T08:00:37;6.00;99.90
15997;DHT22;8103;51.340;12.326;2023-12-20T08:03:04;5.90;99.90
15997;DHT22;8103;51.340;12.326;2023-12-20T08:05:31;5.80;99.90
15997;DHT22;8103;51.340;12.326;2023-12-20T08:07:58;5.80;99.90
15997;DHT22;8103;51.340;12.326;2023-12-20T08:10:25;5.70;99.90
15997;DHT22;8103;51.340;12.326;2023-12-20T08:12:52;5.70;99.90
15997;DHT22;8103;51.340;12.326;2023-12-20T08:15:18;5.70;99.90
15997;DHT22;8103;51.340;12.326;2023-12-20T08:17:45;5.60;99.90
15997;DHT22;8103;51.340;12.326;2023-12-20T08:20:12;5.60;99.90
15997;DHT22;8103;51.340;12.326;2023-12-20T08:22:42;5.60;99.90
15997;DHT22;8103;51.340;12.326;2023-12-20T08:25:09;5.60;99.90
15997;DHT22;8103;51.340;12.326;2023-12-20T08:27:40;5.70;99.90
15997;DHT22;8103;51.340;12.326;2023-12-20T08:30:08;5.80;99.90
15997;DHT22;8103;51.340;12.326;2023-12-20T08:32:35;5.80;99.90
15997;DHT22;8103;51.340;12.326;2023-12-20T08:35:02;5.90;99.90
15997;DHT22;8103;51.340;12.326;2023-12-20T08:37:29;5.90;99.90
15997;DHT22;8103;51.340;12.326;2023-12-20T08:39:56;6.20;99.90
15997;DHT22;8103;51.340;12.326;2023-12-20T08:42:23;6.30;99.90
15997;DHT22;8103;51.340;12.326;2023-12-20T08:44:51;6.50;99.90
15997;DHT22;8103;51.340;12.326;2023-12-20T08:47:18;6.60;99.90
15997;DHT22;8103;51.340;12.326;2023-12-20T08:49:46;6.70;99.90
15997;DHT22;8103;51.340;12.326;2023-12-20T08:52:13;6.70;99.90
15997;DHT22;8103;51.340;12.326;2023-12-20T08:54:40;6.50;99.90
15997;DHT22;8103;51.340;12.326;2023-12-20T08:57:08;6.40;99.90
15997;DHT22;8103;51.340;12.326;2023-12-20T08:59:35;6.30;99.90
15997;DHT22;8103;51.340;12.326;2023-12-20T09:02:02;6.10;99.90
15997;DHT22;8103;51.340;12.326;2023-12-20T09:04:29;6.10;99.90
15997;DHT22;8103;51.340;12.326;2023-12-20T09:06:56;6.20;99.90
15997;DHT22;8103;51.340;12.326;2023-12-20T09:09:22;6.70;99.90
15997;DHT22;8103;51.340;12.326;2023-12-20T09:11:49;7.00;99.90
15997;DHT22;8103;51.340;12.326;2023-12-20T09:14:17;7.60;99.90
15997;DHT22;8103;51.340;12.326;2023-12-20T09:16:44;8.20;99.90
15997;DHT22;8103;51.340;12.326;2023-12-20T09:19:11;8.50;99.90
15997;DHT22;8103;51.340;12.326;2023-12-20T09:21:38;8.60;99.90
15997;DHT22;8103;51.340;12.326;2023-12-20T09:24:05;8.40;99.90
15997;DHT22;8103;51.340;12.326;2023-12-20T09:26:32;8.00;99.90
15997;DHT22;8103;51.340;12.326;2023-12-20T09:28:58;7.60;99.90
15997;DHT22;8103;51.340;12.326;2023-12-20T09:31:25;7.40;99.90
15997;DHT22;8103;51.340;12.326;2023-12-20T09:33:52;7.20;99.90
15997;DHT22;8103;51.340;12.326;2023-12-20T09:36:19;7.00;99.90
15997;DHT22;8103;51.340;12.326;2023-12-20T09:38:46;7.20;99.90
15997;DHT22;8103;51.340;12.326;2023-12-20T09:41:13;7.90;99.90
15997;DHT22;8103;51.340;12.326;2023-12-20T09:43:40;9.00;99.90
15997;DHT22;8103;51.340;12.326;2023-12-20T09:46:07;9.90;99.90
15997;DHT22;8103;51.340;12.326;2023-12-20T09:48:36;10.90;98.70
15997;DHT22;8103;51.340;12.326;2023-12-20T09:51:03;11.50;96.40
15997;DHT22;8103;51.340;12.326;2023-12-20T09:53:30;11.40;95.30
15997;DHT22;8103;51.340;12.326;2023-12-20T09:55:59;10.40;96.50
15997;DHT22;8103;51.340;12.326;2023-12-20T09:58:26;9.60;98.60
15997;DHT22;8103;51.340;12.326;2023-12-20T10:00:54;9.00;99.90
15997;DHT22;8103;51.340;12.326;2023-12-20T10:03:25;8.60;99.90
15997;DHT22;8103;51.340;12.326;2023-12-20T10:05:54;8.50;99.90
15997;DHT22;8103;51.340;12.326;2023-12-20T10:08:24;8.40;99.90
15997;DHT22;8103;51.340;12.326;2023-12-20T10:10:51;8.50;99.90
15997;DHT22;8103;51.340;12.326;2023-12-20T10:13:17;8.30;99.90
15997;DHT22;8103;51.340;12.326;2023-12-20T10:15:46;8.30;99.90
15997;DHT22;8103;51.340;12.326;2023-12-20T10:18:13;8.40;99.90
15997;DHT22;8103;51.340;12.326;2023-12-20T10:20:40;8.40;99.90
15997;DHT22;8103;51.340;12.326;2023-12-20T10:23:08;8.50;99.90
15997;DHT22;8103;51.340;12.326;2023-12-20T10:25:35;8.50;99.90
15997;DHT22;8103;51.340;12.326;2023-12-20T10:28:14;8.30;99.90
15997;DHT22;8103;51.340;12.326;2023-12-20T10:30:41;8.20;99.90
15997;DHT22;8103;51.340;12.326;2023-12-20T10:33:09;8.10;99.90
15997;DHT22;8103;51.340;12.326;2023-12-20T10:35:38;8.10;99.90
15997;DHT22;8103;51.340;12.326;2023-12-20T10:41:53;8.10;99.90
15997;DHT22;8103;51.340;12.326;2023-12-20T10:44:20;8.00;99.90
15997;DHT22;8103;51.340;12.326;2023-12-20T10:46:49;8.00;99.90
15997;DHT22;8103;51.340;12.326;2023-12-20T10:49:18;7.90;99.90
15997;DHT22;8103;51.340;12.326;2023-12-20T10:51:46;7.70;99.90
15997;DHT22;8103;51.340;12.326;2023-12-20T10:54:14;7.70;99.90
15997;DHT22;8103;51.340;12.326;2023-12-20T10:56:40;7.70;99.90
15997;DHT22;8103;51.340;12.326;2023-12-20T10:59:10;7.70;99.90
15997;DHT22;8103;51.340;12.326;2023-12-20T11:01:38;7.70;99.90
15997;DHT22;8103;51.340;12.326;2023-12-20T11:04:10;7.70;99.90
15997;DHT22;8103;51.340;12.326;2023-12-20T11:06:48;7.70;99.90
15997;DHT22;8103;51.340;12.326;2023-12-20T11:09:28;7.80;99.90
15997;DHT22;8103;51.340;12.326;2023-12-20T11:12:18;7.90;99.90
15997;DHT22;8103;51.340;12.326;2023-12-20T11:14:50;7.90;99.90
15997;DHT22;8103;51.340;12.326;2023-12-20T11:17:17;8.00;99.90
15997;DHT22;8103;51.340;12.326;2023-12-20T11:22:25;8.00;99.90
15997;DHT22;8103;51.340;12.326;2023-12-20T11:24:52;8.10;99.90
15997;DHT22;8103;51.340;12.326;2023-12-20T11:27:20;8.00;99.90
15997;DHT22;8103;51.340;12.326;2023-12-20T11:29:54;8.00;99.90
15997;DHT22;8103;51.340;12.326;2023-12-20T11:34:58;7.80;99.90
15997;DHT22;8103;51.340;12.326;2023-12-20T11:37:29;7.80;99.90
15997;DHT22;8103;51.340;12.326;2023-12-20T11:40:06;7.70;99.90
15997;DHT22;8103;51.340;12.326;2023-12-20T11:42:41;7.60;99.90
15997;DHT22;8103;51.340;12.326;2023-12-20T11:45:19;7.50;99.90
15997;DHT22;8103;51.340;12.326;2023-12-20T11:47:49;7.40;99.90
15997;DHT22;8103;51.340;12.326;2023-12-20T11:50:21;7.40;99.90
15997;DHT22;8103;51.340;12.326;2023-12-20T11:52:49;7.40;99.90
15997;DHT22;8103;51.340;12.326;2023-12-20T11:55:16;7.40;99.90
15997;DHT22;8103;51.340;12.326;2023-12-20T11:57:44;7.40;99.90
15997;DHT22;8103;51.340;12.326;2023-12-20T12:00:12;7.40;99.90
15997;DHT22;8103;51.340;12.326;2023-12-20T12:02:39;7.40;99.90
15997;DHT22;8103;51.340;12.326;2023-12-20T12:05:06;7.50;99.90
15997;DHT22;8103;51.340;12.326;2023-12-20T12:07:34;7.60;99.90
15997;DHT22;8103;51.340;12.326;2023-12-20T12:10:01;7.60;99.90
15997;DHT22;8103;51.340;12.326;2023-12-20T12:12:30;7.70;99.90
15997;DHT22;8103;51.340;12.326;2023-12-20T12:14:57;7.80;99.90
15997;DHT22;8103;51.340;12.326;2023-12-20T12:17:24;7.80;99.90
15997;DHT22;8103;51.340;12.326;2023-12-20T12:20:05;7.80;99.90
15997;DHT22;8103;51.340;12.326;2023-12-20T12:22:32;7.90;99.90
15997;DHT22;8103;51.340;12.326;2023-12-20T12:25:09;7.90;99.90
15997;DHT22;8103;51.340;12.326;2023-12-20T12:27:36;7.90;99.90
15997;DHT22;8103;51.340;12.326;2023-12-20T12:30:05;7.90;99.90
15997;DHT22;8103;51.340;12.326;2023-12-20T12:32:36;7.90;99.90
15997;DHT22;8103;51.340;12.326;2023-12-20T12:35:04;7.90;99.90
15997;DHT22;8103;51.340;12.326;2023-12-20T12:37:38;7.90;99.90
15997;DHT22;8103;51.340;12.326;2023-12-20T12:40:09;8.00;99.90
15997;DHT22;8103;51.340;12.326;2023-12-20T12:42:40;8.10;99.90
15997;DHT22;8103;51.340;12.326;2023-12-20T12:45:07;8.20;99.90
15997;DHT22;8103;51.340;12.326;2023-12-20T12:47:35;8.30;99.90
15997;DHT22;8103;51.340;12.326;2023-12-20T12:50:02;8.30;99.90
15997;DHT22;8103;51.340;12.326;2023-12-20T12:52:30;8.30;99.90
15997;DHT22;8103;51.340;12.326;2023-12-20T12:54:57;8.30;99.90
15997;DHT22;8103;51.340;12.326;2023-12-20T12:57:24;8.30;99.90
15997;DHT22;8103;51.340;12.326;2023-12-20T12:59:51;8.30;99.90
15997;DHT22;8103;51.340;12.326;2023-12-20T13:02:17;8.30;99.90
15997;DHT22;8103;51.340;12.326;2023-12-20T13:04:45;8.40;99.90
15997;DHT22;8103;51.340;12.326;2023-12-20T13:07:12;8.40;99.90
15997;DHT22;8103;51.340;12.326;2023-12-20T13:09:40;8.40;99.90
15997;DHT22;8103;51.340;12.326;2023-12-20T13:12:07;8.40;99.90
15997;DHT22;8103;51.340;12.326;2023-12-20T13:14:35;8.40;99.90
15997;DHT22;8103;51.340;12.326;2023-12-20T13:17:03;8.40;99.90
15997;DHT22;8103;51.340;12.326;2023-12-20T13:19:30;8.30;99.90
15997;DHT22;8103;51.340;12.326;2023-12-20T13:21:58;8.30;99.90
15997;DHT22;8103;51.340;12.326;2023-12-20T13:24:25;8.30;99.90
15997;DHT22;8103;51.340;12.326;2023-12-20T13:26:52;8.40;99.90
15997;DHT22;8103;51.340;12.326;2023-12-20T13:29:19;8.50;99.90
15997;DHT22;8103;51.340;12.326;2023-12-20T13:31:46;8.60;99.90
15997;DHT22;8103;51.340;12.326;2023-12-20T13:34:13;8.60;99.90
15997;DHT22;8103;51.340;12.326;2023-12-20T13:36:43;8.60;99.90
15997;DHT22;8103;51.340;12.326;2023-12-20T13:39:14;8.60;99.90
15997;DHT22;8103;51.340;12.326;2023-12-20T13:41:41;8.50;99.90
15997;DHT22;8103;51.340;12.326;2023-12-20T13:44:08;8.30;99.90
15997;DHT22;8103;51.340;12.326;2023-12-20T13:46:35;8.10;99.90
15997;DHT22;8103;51.340;12.326;2023-12-20T13:49:02;8.10;99.90
15997;DHT22;8103;51.340;12.326;2023-12-20T13:51:29;8.00;99.90
15997;DHT22;8103;51.340;12.326;2023-12-20T13:53:56;7.90;99.90
15997;DHT22;8103;51.340;12.326;2023-12-20T13:56:24;7.90;99.90
15997;DHT22;8103;51.340;12.326;2023-12-20T13:58:51;7.80;99.90
15997;DHT22;8103;51.340;12.326;2023-12-20T14:01:18;7.80;99.90
15997;DHT22;8103;51.340;12.326;2023-12-20T14:03:44;7.80;99.90
15997;DHT22;8103;51.340;12.326;2023-12-20T14:06:11;7.70;99.90
15997;DHT22;8103;51.340;12.326;2023-12-20T14:08:38;7.80;99.90
15997;DHT22;8103;51.340;12.326;2023-12-20T14:11:05;7.80;99.90
15997;DHT22;8103;51.340;12.326;2023-12-20T14:13:32;7.90;99.90
15997;DHT22;8103;51.340;12.326;2023-12-20T14:16:00;7.90;99.90
15997;DHT22;8103;51.340;12.326;2023-12-20T14:18:28;7.90;99.90
15997;DHT22;8103;51.340;12.326;2023-12-20T14:20:57;7.80;99.90
15997;DHT22;8103;51.340;12.326;2023-12-20T14:23:23;7.60;99.90
15997;DHT22;8103;51.340;12.326;2023-12-20T14:25:50;7.50;99.90
15997;DHT22;8103;51.340;12.326;2023-12-20T14:28:19;7.40;99.90
15997;DHT22;8103;51.340;12.326;2023-12-20T14:30:45;7.40;99.90
15997;DHT22;8103;51.340;12.326;2023-12-20T14:33:12;7.40;99.90
15997;DHT22;8103;51.340;12.326;2023-12-20T14:35:40;7.30;99.90
15997;DHT22;8103;51.340;12.326;2023-12-20T14:38:10;7.30;99.90
15997;DHT22;8103;51.340;12.326;2023-12-20T14:40:39;7.30;99.90
15997;DHT22;8103;51.340;12.326;2023-12-20T14:43:05;7.30;99.90
15997;DHT22;8103;51.340;12.326;2023-12-20T14:45:34;7.30;99.90
15997;DHT22;8103;51.340;12.326;2023-12-20T14:48:01;7.20;99.90
15997;DHT22;8103;51.340;12.326;2023-12-20T14:50:28;7.20;99.90
15997;DHT22;8103;51.340;12.326;2023-12-20T14:52:55;7.20;99.90
15997;DHT22;8103;51.340;12.326;2023-12-20T14:55:23;7.20;99.90
15997;DHT22;8103;51.340;12.326;2023-12-20T14:57:50;7.20;99.90
15997;DHT22;8103;51.340;12.326;2023-12-20T15:00:17;7.20;99.90
15997;DHT22;8103;51.340;12.326;2023-12-20T15:02:45;7.20;99.90
15997;DHT22;8103;51.340;12.326;2023-12-20T15:05:12;7.20;99.90
15997;DHT22;8103;51.340;12.326;2023-12-20T15:07:41;7.20;99.90
15997;DHT22;8103;51.340;12.326;2023-12-20T15:10:08;7.20;99.90
15997;DHT22;8103;51.340;12.326;2023-12-20T15:12:34;7.20;99.90
15997;DHT22;8103;51.340;12.326;2023-12-20T15:15:01;7.20;99.90
15997;DHT22;8103;51.340;12.326;2023-12-20T15:17:28;7.20;99.90
15997;DHT22;8103;51.340;12.326;2023-12-20T15:19:55;7.20;99.90
15997;DHT22;8103;51.340;12.326;2023-12-20T15:26:09;7.10;99.90
15997;DHT22;8103;51.340;12.326;2023-12-20T15:28:36;7.10;99.90
15997;DHT22;8103;51.340;12.326;2023-12-20T15:31:04;7.10;99.90
15997;DHT22;8103;51.340;12.326;2023-12-20T15:33:31;7.10;99.90
15997;DHT22;8103;51.340;12.326;2023-12-20T15:36:01;7.10;99.90
15997;DHT22;8103;51.340;12.326;2023-12-20T15:38:27;7.00;99.90
15997;DHT22;8103;51.340;12.326;2023-12-20T15:40:54;7.00;99.90
15997;DHT22;8103;51.340;12.326;2023-12-20T15:43:20;7.00;99.90
15997;DHT22;8103;51.340;12.326;2023-12-20T15:45:47;7.00;99.90
15997;DHT22;8103;51.340;12.326;2023-12-20T15:48:14;6.90;99.90
15997;DHT22;8103;51.340;12.326;2023-12-20T15:50:44;6.90;99.90
15997;DHT22;8103;51.340;12.326;2023-12-20T15:53:11;6.90;99.90
15997;DHT22;8103;51.340;12.326;2023-12-20T15:55:38;6.90;99.90
15997;DHT22;8103;51.340;12.326;2023-12-20T15:58:05;6.90;99.90
15997;DHT22;8103;51.340;12.326;2023-12-20T16:00:31;6.90;99.90
15997;DHT22;8103;51.340;12.326;2023-12-20T16:02:58;6.90;99.90